Time;durP1;ratioP1;P1;durP2;ratioP2;P2;SDS_P1;SDS_P2;PMS_P1;PMS_P2;Temp;Humidity;BMP_temperature;BMP_pressure;BME280_temperature;BME280_humidity;BME280_pressure;Samples;Min_cycle;Max_cycle;Signal;HPM_P1;HPM_P2
2021/10/12 00:01:38;;;;;;;13.48;1.70;;;11.60;99.90;;;;;;5127128;27;20071;-84
2021/10/12 00:04:04;;;;;;;10.88;1.52;;;11.60;99.90;;;;;;5092906;28;20039;-85
2021/10/12 00:06:29;;;;;;;13.02;2.20;;;11.70;99.90;;;;;;5113558;27;20044;-85
2021/10/12 00:08:57;;;;;;;13.68;2.35;;;11.70;99.90;;;;;;5086271;28;20054;-84
2021/10/12 00:11:23;;;;;;;16.58;2.55;;;11.80;99.90;;;;;;5092891;28;20047;-85
2021/10/12 00:13:49;;;;;;;14.98;2.13;;;11.70;99.90;;;;;;5109921;28;20043;-84
2021/10/12 00:16:15;;;;;;;15.48;2.35;;;11.60;99.90;;;;;;5109746;28;20047;-85
2021/10/12 00:18:41;;;;;;;23.73;2.78;;;11.50;99.90;;;;;;5092298;28;20414;-85
2021/10/12 00:21:07;;;;;;;26.38;2.97;;;11.40;99.90;;;;;;5073066;28;20073;-84
2021/10/12 00:23:33;;;;;;;27.27;2.83;;;11.20;99.90;;;;;;5101468;28;20394;-84
2021/10/12 00:25:58;;;;;;;27.92;2.47;;;11.30;99.90;;;;;;5092702;28;20096;-84
2021/10/12 00:28:24;;;;;;;10.32;1.60;;;11.00;99.90;;;;;;5092657;28;20501;-83
2021/10/12 00:30:51;;;;;;;12.73;2.03;;;11.00;99.90;;;;;;5088889;28;20043;-84
2021/10/12 00:33:17;;;;;;;12.60;1.52;;;11.10;99.90;;;;;;5107768;28;20090;-84
2021/10/12 00:35:43;;;;;;;12.95;1.55;;;10.90;99.90;;;;;;5143394;27;20471;-84
2021/10/12 00:38:09;;;;;;;8.63;0.90;;;11.20;99.90;;;;;;5126025;27;20051;-84
2021/10/12 00:40:38;;;;;;;7.25;0.80;;;10.80;99.90;;;;;;5109096;28;20071;-84
2021/10/12 00:43:04;;;;;;;9.48;1.48;;;11.00;99.90;;;;;;5108945;28;20511;-84
2021/10/12 00:45:31;;;;;;;15.80;1.40;;;10.90;99.90;;;;;;5092158;28;20032;-84
2021/10/12 00:48:01;;;;;;;11.68;1.20;;;10.90;99.90;;;;;;5143047;27;20115;-84
2021/10/12 00:50:30;;;;;;;16.65;1.23;;;10.60;99.90;;;;;;5092760;28;20046;-84
2021/10/12 00:52:56;;;;;;;16.70;1.45;;;10.60;99.90;;;;;;5091852;28;20044;-84
2021/10/12 00:55:22;;;;;;;18.65;1.60;;;10.90;99.90;;;;;;5143242;27;20036;-84
2021/10/12 00:57:49;;;;;;;20.98;1.30;;;11.00;99.90;;;;;;5091060;28;20055;-84
2021/10/12 01:00:15;;;;;;;14.65;1.33;;;10.80;99.90;;;;;;5092089;28;20101;-84
2021/10/12 01:02:41;;;;;;;17.52;1.48;;;10.80;99.90;;;;;;5108960;28;20162;-84
2021/10/12 01:05:08;;;;;;;19.25;1.60;;;11.00;99.90;;;;;;5109483;28;20486;-84
2021/10/12 01:07:34;;;;;;;19.13;1.50;;;10.80;99.90;;;;;;5109625;28;20036;-84
2021/10/12 01:10:01;;;;;;;31.55;2.45;;;10.80;99.90;;;;;;5108721;28;20040;-84
2021/10/12 01:12:27;;;;;;;26.48;1.70;;;10.80;99.90;;;;;;5108133;28;20040;-84
2021/10/12 01:14:53;;;;;;;16.20;1.83;;;10.90;99.90;;;;;;5110266;28;20448;-83
2021/10/12 01:17:19;;;;;;;15.98;1.83;;;10.90;99.90;;;;;;5100496;28;20047;-83
2021/10/12 01:19:48;;;;;;;15.07;1.60;;;11.00;99.90;;;;;;5089885;28;20067;-84
2021/10/12 01:22:14;;;;;;;20.10;1.80;;;11.20;99.90;;;;;;5108288;28;20089;-83
2021/10/12 01:24:40;;;;;;;19.52;2.08;;;11.10;99.90;;;;;;5091175;28;20554;-83
2021/10/12 01:27:06;;;;;;;10.77;1.50;;;11.30;99.90;;;;;;5108317;28;20844;-84
2021/10/12 01:29:32;;;;;;;11.95;1.85;;;11.10;99.90;;;;;;5108540;28;20127;-84
2021/10/12 01:31:58;;;;;;;13.23;1.83;;;10.90;99.90;;;;;;5091210;28;20042;-84
2021/10/12 01:34:24;;;;;;;10.80;1.55;;;11.00;99.90;;;;;;5109862;28;20043;-84
2021/10/12 01:36:50;;;;;;;18.85;1.40;;;11.20;99.90;;;;;;5136197;27;20074;-84
2021/10/12 01:39:18;;;;;;;10.63;2.03;;;10.90;99.90;;;;;;5106035;27;21061;-84
2021/10/12 01:41:44;;;;;;;11.00;1.70;;;11.10;99.90;;;;;;5091218;28;20077;-84
2021/10/12 01:44:15;;;;;;;9.77;1.38;;;11.00;99.90;;;;;;5143023;27;20084;-83
2021/10/12 01:46:42;;;;;;;12.50;1.73;;;10.90;99.90;;;;;;5140310;27;20130;-84
2021/10/12 01:49:08;;;;;;;23.88;2.20;;;11.10;99.90;;;;;;5108403;28;20067;-83
2021/10/12 01:51:34;;;;;;;16.25;1.58;;;10.90;99.90;;;;;;5124366;27;20082;-84
2021/10/12 01:54:01;;;;;;;18.92;2.13;;;11.20;99.90;;;;;;5106365;28;20465;-84
2021/10/12 01:56:30;;;;;;;14.85;2.08;;;11.10;99.90;;;;;;5087323;28;20039;-84
2021/10/12 01:58:56;;;;;;;16.23;2.47;;;10.90;99.90;;;;;;5106259;28;20047;-85
2021/10/12 02:01:23;;;;;;;19.92;1.75;;;10.90;99.90;;;;;;5120898;27;20108;-83
2021/10/12 02:03:49;;;;;;;18.63;2.05;;;11.10;99.90;;;;;;5124390;27;20052;-84
2021/10/12 02:06:16;;;;;;;18.33;1.88;;;11.20;99.90;;;;;;5107602;28;20429;-84
2021/10/12 02:08:42;;;;;;;15.60;1.63;;;10.90;99.90;;;;;;5090683;28;20080;-84
2021/10/12 02:11:08;;;;;;;12.23;1.90;;;11.20;99.90;;;;;;5107950;28;20509;-84
2021/10/12 02:13:34;;;;;;;21.40;2.05;;;11.20;99.90;;;;;;5092901;28;20126;-84
2021/10/12 02:16:00;;;;;;;19.17;2.00;;;10.80;99.90;;;;;;5105064;27;20039;-84
2021/10/12 02:18:26;;;;;;;19.17;1.90;;;10.80;99.90;;;;;;5101572;28;20472;-83
2021/10/12 02:20:52;;;;;;;19.95;1.80;;;11.10;99.90;;;;;;5109285;28;20038;-83
2021/10/12 02:23:18;;;;;;;18.33;1.77;;;11.20;99.90;;;;;;5107564;28;20089;-83
2021/10/12 02:25:44;;;;;;;15.32;2.40;;;11.10;99.90;;;;;;5125006;27;21421;-84
2021/10/12 02:28:10;;;;;;;13.50;2.55;;;10.80;99.90;;;;;;5122967;27;20040;-84
2021/10/12 02:30:36;;;;;;;13.25;1.70;;;10.80;99.90;;;;;;5108043;28;20043;-84
2021/10/12 02:33:02;;;;;;;18.52;2.28;;;11.00;99.90;;;;;;5107159;28;20024;-84
2021/10/12 02:35:28;;;;;;;17.88;1.73;;;10.80;99.90;;;;;;5107637;28;20128;-84
2021/10/12 02:37:55;;;;;;;17.95;1.88;;;10.90;99.90;;;;;;5073520;28;20036;-84
2021/10/12 02:40:21;;;;;;;13.40;1.25;;;11.20;99.90;;;;;;5107638;28;20044;-84
2021/10/12 02:42:47;;;;;;;16.88;2.38;;;11.10;99.90;;;;;;5104546;28;20514;-84
2021/10/12 02:45:13;;;;;;;21.48;2.72;;;10.90;99.90;;;;;;5074277;28;20032;-84
2021/10/12 02:47:39;;;;;;;16.13;2.00;;;11.30;99.90;;;;;;5106843;28;20164;-84
2021/10/12 02:50:06;;;;;;;16.92;2.10;;;10.90;99.90;;;;;;5107495;28;20124;-84
2021/10/12 02:52:32;;;;;;;20.50;2.78;;;10.90;99.90;;;;;;5107233;28;20097;-84
2021/10/12 02:54:58;;;;;;;19.50;2.75;;;11.40;99.90;;;;;;5090619;28;20627;-84
2021/10/12 02:57:23;;;;;;;14.32;3.03;;;11.20;99.90;;;;;;5107438;28;20051;-84
2021/10/12 02:59:49;;;;;;;11.18;1.50;;;11.40;99.90;;;;;;5104136;28;20055;-84
2021/10/12 03:02:15;;;;;;;8.35;1.20;;;11.40;99.90;;;;;;5108870;28;20035;-84
2021/10/12 03:04:41;;;;;;;8.73;0.85;;;11.30;99.90;;;;;;5126893;27;21239;-84
2021/10/12 03:07:07;;;;;;;11.38;0.90;;;11.20;99.90;;;;;;5111168;28;20124;-84
2021/10/12 03:09:33;;;;;;;9.95;1.17;;;10.90;99.90;;;;;;5094324;28;20039;-84
2021/10/12 03:11:58;;;;;;;7.72;1.20;;;10.90;99.90;;;;;;5111792;28;20041;-83
2021/10/12 03:14:24;;;;;;;9.80;1.00;;;10.60;99.90;;;;;;5144928;27;20486;-84
2021/10/12 03:16:50;;;;;;;13.88;1.33;;;10.90;99.90;;;;;;5111477;28;20104;-84
2021/10/12 03:19:16;;;;;;;12.05;1.15;;;11.10;99.90;;;;;;5126647;27;20049;-84
2021/10/12 03:21:50;;;;;;;11.73;1.52;;;10.60;99.90;;;;;;5111088;28;20043;-84
2021/10/12 03:24:16;;;;;;;25.00;2.67;;;11.10;99.90;;;;;;5109622;28;20406;-84
2021/10/12 03:26:42;;;;;;;12.52;1.48;;;11.00;99.90;;;;;;5094237;28;20042;-84
2021/10/12 03:29:07;;;;;;;9.73;1.35;;;10.70;99.90;;;;;;5110881;28;20062;-84
2021/10/12 03:31:33;;;;;;;20.95;2.38;;;11.10;99.90;;;;;;5112210;28;20036;-83
2021/10/12 03:33:59;;;;;;;12.57;1.85;;;10.70;99.90;;;;;;5092698;28;20410;-84
2021/10/12 03:36:24;;;;;;;22.35;2.17;;;10.80;99.90;;;;;;5111298;28;20050;-84
2021/10/12 03:38:50;;;;;;;18.05;1.95;;;11.10;99.90;;;;;;5097368;28;20858;-84
2021/10/12 03:41:16;;;;;;;12.50;1.85;;;11.00;99.90;;;;;;5094151;28;20410;-84
2021/10/12 03:43:41;;;;;;;17.90;1.92;;;10.90;99.90;;;;;;5110275;28;20081;-84
2021/10/12 03:46:07;;;;;;;13.82;2.45;;;11.30;99.90;;;;;;5143947;27;20048;-84
2021/10/12 03:48:33;;;;;;;13.98;1.77;;;11.10;99.90;;;;;;5133172;27;20044;-84
2021/10/12 03:50:59;;;;;;;13.07;1.60;;;10.90;99.90;;;;;;5109137;28;20066;-84
2021/10/12 03:53:25;;;;;;;9.98;1.80;;;10.80;99.90;;;;;;5093281;28;20032;-83
2021/10/12 03:55:50;;;;;;;16.45;1.85;;;10.80;99.90;;;;;;5111115;28;20047;-84
2021/10/12 03:58:16;;;;;;;13.75;2.20;;;11.30;99.90;;;;;;5109829;28;20526;-84
2021/10/12 04:00:42;;;;;;;14.43;1.60;;;10.80;99.90;;;;;;5093397;28;20072;-84
2021/10/12 04:03:07;;;;;;;16.27;2.08;;;11.20;99.90;;;;;;5109963;28;20062;-83
2021/10/12 04:05:33;;;;;;;12.65;1.77;;;10.90;99.90;;;;;;5111117;28;20134;-84
2021/10/12 04:07:58;;;;;;;17.90;1.85;;;11.20;99.90;;;;;;5126719;27;20043;-84
2021/10/12 04:10:24;;;;;;;17.00;1.60;;;10.90;99.90;;;;;;5093659;28;20058;-84
2021/10/12 04:12:50;;;;;;;17.40;1.60;;;11.20;99.90;;;;;;5109567;28;20376;-84
2021/10/12 04:15:16;;;;;;;13.70;1.50;;;11.20;99.90;;;;;;5092458;28;20163;-85
2021/10/12 04:17:41;;;;;;;20.15;1.83;;;11.00;99.90;;;;;;5093248;28;20450;-84
2021/10/12 04:20:08;;;;;;;16.92;2.40;;;10.90;99.90;;;;;;5110911;28;20141;-83
2021/10/12 04:22:33;;;;;;;18.77;2.55;;;10.90;99.90;;;;;;5112533;27;20530;-84
2021/10/12 04:24:59;;;;;;;14.48;2.00;;;11.40;99.90;;;;;;5108996;28;20043;-83
2021/10/12 04:27:26;;;;;;;12.70;1.52;;;10.90;99.90;;;;;;5110984;28;20112;-84
2021/10/12 04:29:52;;;;;;;14.98;1.85;;;11.00;99.90;;;;;;5092488;28;20040;-84
2021/10/12 04:32:18;;;;;;;15.93;1.90;;;11.40;99.90;;;;;;5107270;27;20399;-84
2021/10/12 04:34:44;;;;;;;16.80;2.05;;;11.20;99.90;;;;;;5103434;28;20517;-84
2021/10/12 04:37:10;;;;;;;15.25;2.30;;;11.30;99.90;;;;;;5110969;28;20053;-84
2021/10/12 04:39:35;;;;;;;18.20;1.88;;;11.50;99.90;;;;;;5135340;27;20078;-84
2021/10/12 04:42:01;;;;;;;79.03;3.97;;;11.40;99.90;;;;;;5109297;28;20054;-84
2021/10/12 04:44:28;;;;;;;21.85;1.70;;;11.50;99.90;;;;;;5108838;28;20039;-83
2021/10/12 04:46:54;;;;;;;17.85;1.70;;;11.60;99.90;;;;;;5092458;28;20040;-83
2021/10/12 04:49:20;;;;;;;22.83;1.92;;;11.30;99.90;;;;;;5109145;28;20055;-84
2021/10/12 04:51:46;;;;;;;19.48;2.45;;;11.10;99.90;;;;;;5108567;28;20067;-84
2021/10/12 04:54:12;;;;;;;21.90;3.03;;;11.00;99.90;;;;;;5109007;28;20062;-84
2021/10/12 04:56:38;;;;;;;21.50;1.75;;;11.60;99.90;;;;;;5109631;28;20047;-83
2021/10/12 04:59:04;;;;;;;25.05;2.33;;;11.00;99.90;;;;;;5107677;28;20560;-84
2021/10/12 05:01:30;;;;;;;19.38;1.85;;;11.40;99.90;;;;;;5111726;28;20036;-84
2021/10/12 05:03:55;;;;;;;12.63;1.50;;;11.30;99.90;;;;;;5142213;27;20047;-88
2021/10/12 05:06:21;;;;;;;15.82;1.50;;;11.10;99.90;;;;;;5090514;28;20051;-87
2021/10/12 05:08:47;;;;;;;18.33;1.60;;;11.40;99.90;;;;;;5091136;28;20031;-87
2021/10/12 05:11:13;;;;;;;16.40;1.55;;;11.20;99.90;;;;;;5108760;28;20410;-87
2021/10/12 05:13:39;;;;;;;12.90;1.63;;;10.80;99.90;;;;;;5091313;28;20047;-88
2021/10/12 05:16:10;;;;;;;19.20;1.55;;;10.80;99.90;;;;;;5107636;28;20410;-86
2021/10/12 05:18:38;;;;;;;14.88;2.13;;;11.30;99.90;;;;;;5098466;28;20127;-86
2021/10/12 05:21:04;;;;;;;23.38;1.98;;;10.90;99.90;;;;;;5122039;27;20072;-86
2021/10/12 05:23:29;;;;;;;19.63;1.88;;;11.10;99.90;;;;;;5098463;28;20562;-87
2021/10/12 05:25:57;;;;;;;16.50;1.90;;;11.00;99.90;;;;;;5091019;28;20044;-84
2021/10/12 05:28:22;;;;;;;12.48;2.00;;;11.30;99.90;;;;;;5083959;28;20040;-87
2021/10/12 05:30:48;;;;;;;11.45;1.77;;;10.90;99.90;;;;;;5135382;27;20035;-85
2021/10/12 05:33:15;;;;;;;15.73;1.48;;;11.00;99.90;;;;;;5090608;28;20035;-85
2021/10/12 05:35:45;;;;;;;18.77;1.60;;;10.90;99.90;;;;;;5112072;27;20317;-84
2021/10/12 05:38:11;;;;;;;16.00;1.40;;;10.90;99.90;;;;;;5141443;27;20110;-85
2021/10/12 05:40:37;;;;;;;16.13;1.40;;;10.80;99.90;;;;;;5106320;28;20035;-84
2021/10/12 05:43:03;;;;;;;18.65;1.88;;;10.80;99.90;;;;;;5090496;28;20474;-85
2021/10/12 05:45:28;;;;;;;17.90;1.77;;;11.40;99.90;;;;;;5106673;28;20497;-85
2021/10/12 05:47:54;;;;;;;11.93;1.60;;;11.10;99.90;;;;;;5107040;28;20067;-85
2021/10/12 05:50:20;;;;;;;20.65;1.85;;;11.00;99.90;;;;;;5079097;28;20035;-84
2021/10/12 05:52:56;;;;;;;15.88;1.73;;;11.40;99.90;;;;;;5107343;28;20035;-85
2021/10/12 05:55:30;;;;;;;17.95;1.52;;;11.30;99.90;;;;;;5126385;27;20039;-85
2021/10/12 05:58:06;;;;;;;22.45;1.58;;;11.40;99.90;;;;;;5090343;28;20075;-84
2021/10/12 06:00:34;;;;;;;14.50;1.40;;;11.20;99.90;;;;;;5141414;27;20035;-85
2021/10/12 06:03:00;;;;;;;17.95;2.47;;;11.10;99.90;;;;;;5136524;27;20036;-85
2021/10/12 06:05:25;;;;;;;21.90;1.83;;;11.00;99.90;;;;;;5071084;28;20043;-85
2021/10/12 06:07:51;;;;;;;18.95;1.42;;;11.50;99.90;;;;;;5089350;28;20204;-85
2021/10/12 06:10:17;;;;;;;9.70;1.10;;;11.50;99.90;;;;;;5109209;28;20173;-85
2021/10/12 06:12:42;;;;;;;21.67;2.22;;;11.00;99.90;;;;;;5090886;28;20134;-85
2021/10/12 06:15:08;;;;;;;16.45;1.60;;;10.90;99.90;;;;;;5142367;27;20144;-84
2021/10/12 06:17:34;;;;;;;15.35;1.50;;;11.50;99.90;;;;;;5142285;27;20074;-85
2021/10/12 06:20:00;;;;;;;18.58;1.80;;;11.60;99.90;;;;;;5107398;28;20559;-85
2021/10/12 06:22:25;;;;;;;21.42;1.65;;;11.00;99.90;;;;;;5090959;28;20028;-84
2021/10/12 06:24:51;;;;;;;23.30;2.03;;;10.90;99.90;;;;;;5107683;28;20035;-85
2021/10/12 06:27:17;;;;;;;17.92;2.30;;;11.10;99.90;;;;;;5109274;28;20126;-85
2021/10/12 06:29:42;;;;;;;27.17;2.22;;;10.90;99.90;;;;;;5108996;28;20036;-85
2021/10/12 06:32:08;;;;;;;20.17;2.15;;;10.90;99.90;;;;;;5107353;28;20050;-85
2021/10/12 06:34:34;;;;;;;23.90;2.38;;;11.70;99.90;;;;;;5107259;28;20447;-84
2021/10/12 06:37:00;;;;;;;26.42;2.30;;;11.00;99.90;;;;;;5073828;28;20122;-85
2021/10/12 06:39:25;;;;;;;18.13;2.00;;;11.20;99.90;;;;;;5110702;28;20089;-85
2021/10/12 06:41:51;;;;;;;16.27;1.65;;;11.80;99.90;;;;;;5094843;28;20506;-85
2021/10/12 06:44:16;;;;;;;21.60;2.03;;;11.50;99.90;;;;;;5094653;28;20078;-85
2021/10/12 06:46:42;;;;;;;30.70;3.55;;;11.60;99.90;;;;;;5094198;28;20128;-84
2021/10/12 06:49:08;;;;;;;27.17;2.03;;;11.20;99.90;;;;;;5112800;28;20375;-85
2021/10/12 06:51:34;;;;;;;28.25;2.67;;;11.60;99.90;;;;;;5095018;28;20547;-88
2021/10/12 06:53:59;;;;;;;23.52;2.92;;;11.90;99.90;;;;;;5094590;28;20486;-86
2021/10/12 06:56:25;;;;;;;24.67;2.28;;;11.90;99.90;;;;;;5078067;28;20160;-87
2021/10/12 06:58:51;;;;;;;16.50;1.90;;;11.20;99.90;;;;;;5094520;28;20559;-87
2021/10/12 07:01:17;;;;;;;43.05;3.90;;;11.20;99.90;;;;;;5094412;28;20055;-87
2021/10/12 07:03:42;;;;;;;21.85;2.78;;;11.80;99.90;;;;;;5095168;28;20475;-85
2021/10/12 07:06:08;;;;;;;43.05;3.53;;;12.00;99.90;;;;;;5111541;28;20404;-84
2021/10/12 07:08:34;;;;;;;13.20;1.63;;;11.10;99.90;;;;;;5145694;27;20043;-88
2021/10/12 07:10:59;;;;;;;16.80;1.40;;;12.00;99.90;;;;;;5112073;28;20031;-90
2021/10/12 07:13:29;;;;;;;14.38;1.73;;;12.00;99.90;;;;;;5087697;28;20035;-90
2021/10/12 07:15:56;;;;;;;13.73;1.85;;;11.10;99.90;;;;;;5109271;28;20036;-90
2021/10/12 07:18:25;;;;;;;12.80;1.67;;;11.50;99.90;;;;;;5094779;28;20039;-90
2021/10/12 07:20:51;;;;;;;16.95;2.53;;;11.60;99.90;;;;;;5112219;28;20043;-88
2021/10/12 07:23:17;;;;;;;10.52;1.80;;;11.70;99.90;;;;;;5087203;28;20047;-83
2021/10/12 07:25:50;;;;;;;14.70;2.05;;;11.40;99.90;;;;;;5109567;28;20040;-83
2021/10/12 07:28:17;;;;;;;15.35;2.15;;;11.60;99.90;;;;;;5109726;28;20039;-84
2021/10/12 07:30:43;;;;;;;13.05;2.80;;;11.10;99.90;;;;;;5108144;28;21677;-84
2021/10/12 07:33:08;;;;;;;22.15;2.55;;;12.00;99.90;;;;;;5109433;28;20071;-84
2021/10/12 07:35:34;;;;;;;16.25;1.50;;;11.20;99.90;;;;;;5092125;28;20130;-83
2021/10/12 07:38:01;;;;;;;16.98;2.00;;;12.00;99.90;;;;;;5070973;28;20486;-85
2021/10/12 07:40:27;;;;;;;12.25;1.83;;;11.90;99.90;;;;;;5088301;28;20044;-86
2021/10/12 07:42:53;;;;;;;13.98;1.88;;;11.80;99.90;;;;;;5105036;28;20548;-86
2021/10/12 07:45:18;;;;;;;14.57;2.80;;;11.50;99.90;;;;;;5088567;28;20051;-85
2021/10/12 07:47:44;;;;;;;17.48;1.80;;;11.10;99.90;;;;;;5122067;27;20063;-85
2021/10/12 07:50:10;;;;;;;14.48;1.88;;;11.30;99.90;;;;;;5117389;27;20043;-85
2021/10/12 07:52:37;;;;;;;11.68;1.85;;;11.10;99.90;;;;;;5107867;28;20547;-85
2021/10/12 07:57:32;;;;;;;19.95;3.35;;;12.00;99.90;;;;;;5141124;27;20077;-85
2021/10/12 07:59:58;;;;;;;8.63;1.90;;;11.10;99.90;;;;;;5126940;27;20051;-85
2021/10/12 08:02:24;;;;;;;11.35;2.20;;;11.10;99.90;;;;;;5126953;27;20043;-85
2021/10/12 08:04:50;;;;;;;12.00;1.55;;;11.70;99.90;;;;;;5092263;28;20063;-85
2021/10/12 08:07:15;;;;;;;16.30;1.83;;;12.00;99.90;;;;;;5087854;28;20447;-84
2021/10/12 08:09:41;;;;;;;10.13;1.38;;;11.90;99.90;;;;;;5090397;28;20054;-84
2021/10/12 08:12:07;;;;;;;15.05;1.80;;;11.10;99.90;;;;;;5108039;27;20069;-83
2021/10/12 08:14:40;;;;;;;14.02;1.50;;;11.20;99.90;;;;;;5137787;27;20082;-84
2021/10/12 08:17:06;;;;;;;12.85;1.52;;;11.90;99.90;;;;;;5098810;28;20043;-83
2021/10/12 08:19:32;;;;;;;15.45;1.58;;;11.10;99.90;;;;;;5125642;27;20052;-84
2021/10/12 08:21:58;;;;;;;15.20;1.15;;;11.90;99.90;;;;;;5106849;27;20036;-84
2021/10/12 08:24:24;;;;;;;18.27;2.05;;;11.40;99.90;;;;;;5093395;27;20072;-84
2021/10/12 08:26:50;;;;;;;23.35;1.55;;;11.20;99.90;;;;;;5090298;28;20494;-84
2021/10/12 08:29:16;;;;;;;11.55;1.17;;;12.00;99.90;;;;;;5067665;28;20044;-85
2021/10/12 08:31:42;;;;;;;10.50;0.90;;;11.20;99.90;;;;;;5071058;28;20060;-84
2021/10/12 08:34:08;;;;;;;15.32;1.90;;;11.80;99.90;;;;;;5127377;27;20077;-83
2021/10/12 08:36:34;;;;;;;9.50;1.15;;;11.20;99.90;;;;;;5106285;28;20047;-83
2021/10/12 08:38:59;;;;;;;10.25;1.65;;;11.20;99.90;;;;;;5107336;27;20050;-84
2021/10/12 08:41:32;;;;;;;13.57;1.85;;;11.20;99.90;;;;;;5089411;28;20082;-84
2021/10/12 08:43:58;;;;;;;13.18;1.30;;;11.80;99.90;;;;;;5089493;27;20109;-84
2021/10/12 08:46:26;;;;;;;9.68;1.60;;;11.10;99.90;;;;;;5092406;27;20424;-85
2021/10/12 08:48:57;;;;;;;13.07;1.30;;;11.30;99.90;;;;;;5109360;27;20066;-85
2021/10/12 08:51:24;;;;;;;9.38;1.10;;;11.90;99.90;;;;;;5091233;28;20039;-84
2021/10/12 08:53:49;;;;;;;13.35;1.70;;;11.50;99.90;;;;;;5072936;28;20085;-86
2021/10/12 08:56:15;;;;;;;15.98;1.70;;;12.10;99.90;;;;;;5102851;27;20039;-84
2021/10/12 08:58:41;;;;;;;13.05;1.50;;;11.30;99.90;;;;;;5107860;28;20586;-84
2021/10/12 09:01:11;;;;;;;10.05;1.20;;;12.10;99.90;;;;;;5108411;27;20108;-85
2021/10/12 09:03:44;;;;;;;16.25;1.70;;;11.70;99.90;;;;;;5106069;28;20042;-84
2021/10/12 09:06:10;;;;;;;18.88;1.45;;;12.10;99.90;;;;;;5133227;27;20130;-84
2021/10/12 09:08:40;;;;;;;18.85;1.60;;;11.50;99.90;;;;;;5109356;27;20912;-85
2021/10/12 09:11:20;;;;;;;16.85;1.85;;;11.30;99.90;;;;;;5090379;28;20051;-85
2021/10/12 09:13:53;;;;;;;12.25;1.35;;;11.30;99.90;;;;;;5115396;27;20160;-86
2021/10/12 09:16:21;;;;;;;20.63;2.13;;;11.70;99.90;;;;;;5110179;27;20099;-85
2021/10/12 09:18:53;;;;;;;11.45;1.45;;;11.50;99.90;;;;;;5089058;28;20039;-85
2021/10/12 09:21:25;;;;;;;12.73;1.48;;;12.10;99.90;;;;;;5090292;27;20556;-83
2021/10/12 09:23:59;;;;;;;;;;;12.20;99.90;;;;;;5090357;28;20496;-83
2021/10/12 09:26:27;;;;;;;12.35;1.50;;;12.20;99.90;;;;;;5139189;27;19927;-83
2021/10/12 09:29:34;;;;;;;11.85;1.45;;;12.00;99.90;;;;;;5106114;28;20666;-84
2021/10/12 09:32:00;;;;;;;8.73;0.95;;;11.40;99.90;;;;;;5108253;27;20383;-84
2021/10/12 09:34:34;;;;;;;13.20;2.00;;;12.00;99.90;;;;;;5089391;28;20042;-83
2021/10/12 09:37:02;;;;;;;17.17;1.05;;;11.50;99.90;;;;;;5106520;28;20055;-84
2021/10/12 09:39:36;;;;;;;14.80;3.17;;;11.30;99.90;;;;;;5108829;27;20047;-84
2021/10/12 09:42:11;;;;;;;12.68;1.60;;;11.30;99.90;;;;;;5105194;27;20093;-84
2021/10/12 09:44:48;;;;;;;6.72;0.90;;;11.20;99.90;;;;;;5122833;27;20036;-83
2021/10/12 09:47:15;;;;;;;10.63;1.25;;;11.10;99.90;;;;;;5118689;27;20047;-84
2021/10/12 09:49:42;;;;;;;8.18;1.48;;;11.30;99.90;;;;;;5113731;27;20069;-84
2021/10/12 09:52:13;;;;;;;11.52;1.10;;;11.40;99.90;;;;;;5093367;27;20441;-85
2021/10/12 09:54:48;;;;;;;13.33;1.33;;;11.80;99.90;;;;;;5116340;27;20031;-84
2021/10/12 09:57:18;;;;;;;9.90;1.08;;;11.10;99.90;;;;;;5116814;27;20094;-84
2021/10/12 09:59:45;;;;;;;12.50;1.45;;;11.10;99.90;;;;;;5123709;27;20112;-84
2021/10/12 10:02:20;;;;;;;18.48;1.50;;;11.10;99.90;;;;;;5106975;27;20128;-84
2021/10/12 10:04:46;;;;;;;11.75;1.20;;;11.00;99.90;;;;;;5119274;27;20047;-84
2021/10/12 10:07:22;;;;;;;8.43;1.17;;;10.90;99.90;;;;;;5107813;28;20398;-84
2021/10/12 10:09:50;;;;;;;10.68;1.42;;;10.90;99.90;;;;;;5108223;27;20734;-84
2021/10/12 10:12:15;;;;;;;9.77;1.15;;;11.10;99.90;;;;;;5123136;27;20786;-84
2021/10/12 10:14:41;;;;;;;9.77;1.40;;;11.00;99.90;;;;;;5121454;27;20043;-85
2021/10/12 10:17:07;;;;;;;10.23;1.55;;;11.00;99.90;;;;;;5105181;28;20047;-85
2021/10/12 10:19:35;;;;;;;9.52;1.20;;;11.00;99.90;;;;;;5090074;28;20039;-85
2021/10/12 10:22:05;;;;;;;5.15;0.95;;;11.10;99.90;;;;;;5107278;28;20043;-84
2021/10/12 10:24:30;;;;;;;5.55;0.95;;;10.80;99.90;;;;;;5110985;27;20034;-85
2021/10/12 10:26:57;;;;;;;8.45;1.20;;;10.50;99.90;;;;;;5096216;28;20042;-84
2021/10/12 10:29:38;;;;;;;5.93;1.10;;;10.90;99.90;;;;;;5110213;27;20044;-84
2021/10/12 10:32:17;;;;;;;9.93;1.30;;;10.70;99.90;;;;;;5091689;28;20124;-83
2021/10/12 10:34:45;;;;;;;12.45;1.30;;;10.40;99.90;;;;;;5106431;28;20108;-84
2021/10/12 10:37:17;;;;;;;10.82;0.80;;;11.00;99.90;;;;;;5129769;27;20071;-84
2021/10/12 10:39:46;;;;;;;6.38;0.90;;;10.70;99.90;;;;;;5105712;28;20462;-84
2021/10/12 10:42:26;;;;;;;7.60;1.23;;;11.10;99.90;;;;;;5091780;28;20055;-83
2021/10/12 10:44:56;;;;;;;8.77;1.45;;;10.70;99.90;;;;;;5092104;28;20050;-84
2021/10/12 10:47:40;;;;;;;6.65;0.90;;;11.30;99.90;;;;;;5105077;28;20118;-84
2021/10/12 10:50:33;;;;;;;6.15;1.30;;;10.90;99.90;;;;;;5125675;27;20047;-84
2021/10/12 10:53:01;;;;;;;6.47;0.82;;;10.70;99.90;;;;;;5102091;28;20043;-85
2021/10/12 10:55:35;;;;;;;7.45;0.88;;;11.10;99.90;;;;;;5103830;28;20051;-85
2021/10/12 10:58:16;;;;;;;6.20;1.42;;;11.30;99.90;;;;;;5105206;28;20425;-85
2021/10/12 11:00:45;;;;;;;5.05;0.80;;;10.80;99.90;;;;;;5104233;28;20384;-85
2021/10/12 11:03:34;;;;;;;17.60;2.05;;;11.30;99.90;;;;;;5096589;28;20547;-84
2021/10/12 11:06:20;;;;;;;7.03;1.10;;;11.30;99.90;;;;;;5104928;28;20035;-84
2021/10/12 11:09:03;;;;;;;7.40;1.67;;;11.00;99.90;;;;;;5121384;28;20130;-84
2021/10/12 11:11:35;;;;;;;7.15;1.08;;;11.40;99.90;;;;;;5106640;28;20564;-84
2021/10/12 11:14:03;;;;;;;6.28;1.00;;;11.10;99.90;;;;;;5110808;28;20516;-84
2021/10/12 11:16:38;;;;;;;8.40;1.50;;;11.00;99.90;;;;;;5105090;28;20184;-84
2021/10/12 11:19:05;;;;;;;6.97;1.55;;;11.00;99.90;;;;;;5106747;28;20046;-85
2021/10/12 11:21:31;;;;;;;4.72;0.95;;;11.20;99.90;;;;;;5106362;28;20063;-84
2021/10/12 11:23:58;;;;;;;14.15;1.50;;;11.00;99.90;;;;;;5124141;27;20508;-83
2021/10/12 11:26:27;;;;;;;6.90;0.95;;;10.90;99.90;;;;;;5093045;28;20040;-83
2021/10/12 11:28:59;;;;;;;12.88;1.20;;;11.20;99.90;;;;;;5118948;27;20530;-82
2021/10/12 11:31:27;;;;;;;9.23;1.38;;;11.00;99.90;;;;;;5101213;28;20050;-83
2021/10/12 11:33:55;;;;;;;7.68;1.83;;;11.10;99.90;;;;;;5110156;28;20075;-83
2021/10/12 11:36:23;;;;;;;8.63;1.73;;;11.50;99.90;;;;;;5093096;28;20047;-83
2021/10/12 11:38:53;;;;;;;9.95;1.30;;;11.50;99.90;;;;;;5110009;28;20503;-83
2021/10/12 11:41:25;;;;;;;10.00;1.60;;;11.30;99.90;;;;;;5122915;27;20554;-84
2021/10/12 11:43:53;;;;;;;8.90;1.10;;;11.50;99.90;;;;;;5096761;28;20051;-82
2021/10/12 11:46:21;;;;;;;8.60;1.27;;;11.20;99.90;;;;;;5112961;27;20129;-82
2021/10/12 11:48:47;;;;;;;12.25;2.20;;;11.00;99.90;;;;;;5130880;27;20043;-82
2021/10/12 11:51:22;;;;;;;17.83;3.15;;;11.00;99.90;;;;;;5129781;27;20043;-83
2021/10/12 11:53:50;;;;;;;10.38;1.60;;;11.10;99.90;;;;;;5098339;28;20394;-83
2021/10/12 11:56:18;;;;;;;9.35;1.63;;;11.30;99.90;;;;;;5111991;27;20044;-83
2021/10/12 11:58:44;;;;;;;9.48;1.20;;;11.40;99.90;;;;;;5127942;27;20129;-83
2021/10/12 12:01:10;;;;;;;8.05;1.40;;;11.50;99.90;;;;;;5129930;27;20587;-85
2021/10/12 12:03:39;;;;;;;9.13;1.50;;;11.60;99.90;;;;;;5120830;27;20055;-84
2021/10/12 12:06:04;;;;;;;4.50;1.60;;;11.50;99.90;;;;;;5111564;27;20043;-84
2021/10/12 12:08:31;;;;;;;11.43;1.80;;;11.70;99.90;;;;;;5124660;27;20110;-84
2021/10/12 12:10:58;;;;;;;6.50;0.90;;;11.70;99.90;;;;;;5110047;27;20046;-84
2021/10/12 12:13:31;;;;;;;9.73;1.10;;;11.50;99.90;;;;;;5114977;27;20058;-85
2021/10/12 12:15:57;;;;;;;11.88;2.28;;;11.50;99.90;;;;;;5109489;28;20141;-84
2021/10/12 12:18:25;;;;;;;10.98;1.33;;;11.50;99.90;;;;;;5090613;28;20031;-84
2021/10/12 12:21:00;;;;;;;5.75;1.35;;;11.60;99.90;;;;;;5118911;27;20035;-85
2021/10/12 12:23:42;;;;;;;11.77;1.25;;;11.70;99.90;;;;;;5099965;28;20091;-84
2021/10/12 12:26:10;;;;;;;7.18;1.42;;;11.70;99.90;;;;;;5077470;27;20387;-84
2021/10/12 12:28:37;;;;;;;5.10;0.90;;;11.70;99.90;;;;;;5095213;28;20511;-84
2021/10/12 12:31:26;;;;;;;3.83;0.68;;;11.90;99.90;;;;;;5108430;28;20035;-84
2021/10/12 12:33:54;;;;;;;8.48;1.00;;;11.90;99.90;;;;;;5108408;27;20146;-84
2021/10/12 12:36:32;;;;;;;5.93;1.30;;;12.00;99.90;;;;;;5091275;27;20035;-85
2021/10/12 12:39:06;;;;;;;6.18;1.00;;;12.10;99.90;;;;;;5102350;28;20433;-85
2021/10/12 12:41:37;;;;;;;10.18;1.13;;;12.20;99.90;;;;;;5106398;27;20043;-85
2021/10/12 12:44:04;;;;;;;10.63;1.50;;;12.10;99.90;;;;;;5090873;27;20126;-85